sensor_id;sensor_type;location;lat;lon;timestamp;pressure;altitude;pressure_sealevel;temperature;humidity
70053;BME280;57398;52.032;4.376;2024-03-23T00:55:08;100617.63;;;6.67;100.00
70053;BME280;57398;52.032;4.376;2024-03-23T00:57:54;100651.97;;;6.67;100.00
70053;BME280;57398;52.032;4.376;2024-03-23T01:00:41;100623.72;;;6.53;100.00
70053;BME280;57398;52.032;4.376;2024-03-23T01:03:27;100652.13;;;6.46;100.00
70053;BME280;57398;52.032;4.376;2024-03-23T01:06:14;100682.50;;;6.50;100.00
70053;BME280;57398;52.032;4.376;2024-03-23T01:09:00;100655.66;;;6.38;100.00
70053;BME280;57398;52.032;4.376;2024-03-23T01:11:49;100660.81;;;6.32;100.00
70053;BME280;57398;52.032;4.376;2024-03-23T01:14:35;100698.34;;;6.41;100.00
70053;BME280;57398;52.032;4.376;2024-03-23T01:17:22;100698.75;;;6.38;100.00
70053;BME280;57398;52.032;4.376;2024-03-23T01:20:09;100683.25;;;6.31;100.00
70053;BME280;57398;52.032;4.376;2024-03-23T01:22:56;100648.66;;;6.12;100.00
70053;BME280;57398;52.032;4.376;2024-03-23T01:25:42;100670.09;;;6.19;100.00
70053;BME280;57398;52.032;4.376;2024-03-23T01:28:31;100681.59;;;6.17;100.00
70053;BME280;57398;52.032;4.376;2024-03-23T01:31:17;100696.50;;;6.21;100.00
70053;BME280;57398;52.032;4.376;2024-03-23T01:34:04;100759.88;;;6.37;100.00
70053;BME280;57398;52.032;4.376;2024-03-23T01:36:50;100784.31;;;6.48;100.00
70053;BME280;57398;52.032;4.376;2024-03-23T01:39:37;100773.38;;;6.39;100.00
70053;BME280;57398;52.032;4.376;2024-03-23T01:42:23;100752.28;;;6.29;100.00
70053;BME280;57398;52.032;4.376;2024-03-23T01:45:12;100755.47;;;6.31;100.00
70053;BME280;57398;52.032;4.376;2024-03-23T01:47:59;100737.56;;;6.23;100.00
70053;BME280;57398;52.032;4.376;2024-03-23T01:50:46;100718.66;;;6.09;100.00
70053;BME280;57398;52.032;4.376;2024-03-23T01:53:32;100751.88;;;6.25;100.00
70053;BME280;57398;52.032;4.376;2024-03-23T01:56:20;100766.41;;;6.33;100.00
70053;BME280;57398;52.032;4.376;2024-03-23T01:59:06;100780.66;;;6.29;100.00
70053;BME280;57398;52.032;4.376;2024-03-23T02:01:54;100735.56;;;6.18;100.00
70053;BME280;57398;52.032;4.376;2024-03-23T02:04:40;100738.38;;;6.23;100.00
70053;BME280;57398;52.032;4.376;2024-03-23T02:07:27;100704.19;;;6.08;100.00
70053;BME280;57398;52.032;4.376;2024-03-23T02:10:14;100740.19;;;6.29;100.00
70053;BME280;57398;52.032;4.376;2024-03-23T02:13:01;100765.97;;;6.29;100.00
70053;BME280;57398;52.032;4.376;2024-03-23T02:15:47;100778.31;;;6.41;100.00
70053;BME280;57398;52.032;4.376;2024-03-23T02:18:36;100745.50;;;6.21;100.00
70053;BME280;57398;52.032;4.376;2024-03-23T02:21:22;100738.53;;;6.15;100.00
70053;BME280;57398;52.032;4.376;2024-03-23T02:24:10;100785.25;;;6.34;100.00
70053;BME280;57398;52.032;4.376;2024-03-23T02:26:57;100795.75;;;6.32;100.00
70053;BME280;57398;52.032;4.376;2024-03-23T02:29:44;100815.22;;;6.35;100.00
70053;BME280;57398;52.032;4.376;2024-03-23T02:32:31;100775.28;;;6.24;100.00
70053;BME280;57398;52.032;4.376;2024-03-23T02:35:17;100779.44;;;6.25;100.00
70053;BME280;57398;52.032;4.376;2024-03-23T02:38:04;100737.69;;;6.08;100.00
70053;BME280;57398;52.032;4.376;2024-03-23T02:40:52;100688.56;;;5.88;100.00
70053;BME280;57398;52.032;4.376;2024-03-23T02:43:39;100721.38;;;5.94;100.00
70053;BME280;57398;52.032;4.376;2024-03-23T02:46:25;100709.41;;;5.93;100.00
70053;BME280;57398;52.032;4.376;2024-03-23T02:49:12;100717.53;;;5.90;100.00
70053;BME280;57398;52.032;4.376;2024-03-23T02:51:59;100692.50;;;5.77;100.00
70053;BME280;57398;52.032;4.376;2024-03-23T02:54:46;100727.25;;;5.88;100.00
70053;BME280;57398;52.032;4.376;2024-03-23T02:57:33;100722.25;;;5.80;100.00
70053;BME280;57398;52.032;4.376;2024-03-23T03:00:20;100714.09;;;5.76;100.00
70053;BME280;57398;52.032;4.376;2024-03-23T03:03:06;100705.63;;;5.82;100.00
70053;BME280;57398;52.032;4.376;2024-03-23T03:05:55;100759.50;;;6.05;100.00
70053;BME280;57398;52.032;4.376;2024-03-23T03:08:41;100722.75;;;5.97;100.00
70053;BME280;57398;52.032;4.376;2024-03-23T03:11:28;100807.06;;;6.31;100.00
70053;BME280;57398;52.032;4.376;2024-03-23T03:14:16;100868.09;;;6.52;100.00
70053;BME280;57398;52.032;4.376;2024-03-23T03:17:03;100871.81;;;6.43;100.00
70053;BME280;57398;52.032;4.376;2024-03-23T03:19:49;100885.50;;;6.43;100.00
70053;BME280;57398;52.032;4.376;2024-03-23T03:22:41;100874.59;;;6.41;100.00
70053;BME280;57398;52.032;4.376;2024-03-23T03:25:27;100881.97;;;6.44;100.00
70053;BME280;57398;52.032;4.376;2024-03-23T03:28:14;100887.31;;;6.43;100.00
70053;BME280;57398;52.032;4.376;2024-03-23T03:31:02;100868.97;;;6.31;100.00
70053;BME280;57398;52.032;4.376;2024-03-23T03:33:50;100768.78;;;6.00;100.00
70053;BME280;57398;52.032;4.376;2024-03-23T03:36:36;100823.41;;;6.10;100.00
70053;BME280;57398;52.032;4.376;2024-03-23T03:39:23;100820.41;;;6.06;100.00
70053;BME280;57398;52.032;4.376;2024-03-23T03:42:09;100849.88;;;6.19;100.00
70053;BME280;57398;52.032;4.376;2024-03-23T03:44:57;100840.28;;;6.13;100.00
70053;BME280;57398;52.032;4.376;2024-03-23T03:47:44;100852.81;;;6.16;100.00
70053;BME280;57398;52.032;4.376;2024-03-23T03:50:31;100845.50;;;6.19;100.00
70053;BME280;57398;52.032;4.376;2024-03-23T03:53:17;100792.13;;;5.92;100.00
70053;BME280;57398;52.032;4.376;2024-03-23T03:56:05;100778.09;;;5.94;100.00
70053;BME280;57398;52.032;4.376;2024-03-23T03:58:51;100784.47;;;5.98;100.00
70053;BME280;57398;52.032;4.376;2024-03-23T04:01:38;100783.06;;;5.96;100.00
70053;BME280;57398;52.032;4.376;2024-03-23T04:04:27;100727.78;;;5.77;100.00
70053;BME280;57398;52.032;4.376;2024-03-23T04:07:13;100720.03;;;5.77;100.00
70053;BME280;57398;52.032;4.376;2024-03-23T04:10:00;100697.00;;;5.69;100.00
70053;BME280;57398;52.032;4.376;2024-03-23T04:12:47;100716.63;;;5.70;100.00
70053;BME280;57398;52.032;4.376;2024-03-23T04:15:34;100686.28;;;5.65;100.00
70053;BME280;57398;52.032;4.376;2024-03-23T04:18:20;100690.97;;;5.55;100.00
70053;BME280;57398;52.032;4.376;2024-03-23T04:21:08;100688.56;;;5.53;100.00
70053;BME280;57398;52.032;4.376;2024-03-23T04:23:55;100672.50;;;5.51;100.00
70053;BME280;57398;52.032;4.376;2024-03-23T04:26:42;100682.25;;;5.56;100.00
70053;BME280;57398;52.032;4.376;2024-03-23T04:29:28;100676.53;;;5.60;100.00
70053;BME280;57398;52.032;4.376;2024-03-23T04:32:16;100642.72;;;5.42;100.00
70053;BME280;57398;52.032;4.376;2024-03-23T04:35:02;100650.69;;;5.47;100.00
70053;BME280;57398;52.032;4.376;2024-03-23T04:37:53;100671.19;;;5.62;100.00
70053;BME280;57398;52.032;4.376;2024-03-23T04:40:41;100672.63;;;5.71;100.00
70053;BME280;57398;52.032;4.376;2024-03-23T04:43:28;100656.38;;;5.71;100.00
70053;BME280;57398;52.032;4.376;2024-03-23T04:46:15;100677.66;;;5.86;100.00
70053;BME280;57398;52.032;4.376;2024-03-23T04:49:02;100682.53;;;6.02;100.00
70053;BME280;57398;52.032;4.376;2024-03-23T04:51:50;100657.53;;;5.96;100.00
70053;BME280;57398;52.032;4.376;2024-03-23T04:54:38;100645.41;;;5.97;100.00
70053;BME280;57398;52.032;4.376;2024-03-23T04:57:26;100657.91;;;6.00;100.00
70053;BME280;57398;52.032;4.376;2024-03-23T05:00:14;100660.34;;;6.08;100.00
70053;BME280;57398;52.032;4.376;2024-03-23T05:03:03;100669.06;;;6.14;100.00
70053;BME280;57398;52.032;4.376;2024-03-23T05:05:51;100668.47;;;6.05;100.00
70053;BME280;57398;52.032;4.376;2024-03-23T05:08:37;100668.03;;;6.01;100.00
70053;BME280;57398;52.032;4.376;2024-03-23T05:11:25;100727.16;;;6.03;100.00
70053;BME280;57398;52.032;4.376;2024-03-23T05:14:12;100766.16;;;6.21;100.00
70053;BME280;57398;52.032;4.376;2024-03-23T05:17:00;100742.06;;;6.07;100.00
70053;BME280;57398;52.032;4.376;2024-03-23T05:19:46;100751.38;;;6.08;100.00
70053;BME280;57398;52.032;4.376;2024-03-23T05:22:33;100755.38;;;6.11;100.00
70053;BME280;57398;52.032;4.376;2024-03-23T05:25:20;100723.56;;;5.97;100.00
70053;BME280;57398;52.032;4.376;2024-03-23T05:28:08;100748.44;;;6.12;100.00
70053;BME280;57398;52.032;4.376;2024-03-23T05:30:55;100746.00;;;6.03;100.00
70053;BME280;57398;52.032;4.376;2024-03-23T05:33:42;100733.69;;;5.99;100.00
70053;BME280;57398;52.032;4.376;2024-03-23T05:36:28;100707.66;;;5.94;100.00
70053;BME280;57398;52.032;4.376;2024-03-23T05:39:16;100681.41;;;5.83;100.00
70053;BME280;57398;52.032;4.376;2024-03-23T05:42:02;100700.50;;;5.89;100.00
70053;BME280;57398;52.032;4.376;2024-03-23T05:44:51;100675.25;;;5.78;100.00
70053;BME280;57398;52.032;4.376;2024-03-23T05:47:37;100707.75;;;5.79;100.00
70053;BME280;57398;52.032;4.376;2024-03-23T05:50:24;100732.41;;;5.88;100.00
70053;BME280;57398;52.032;4.376;2024-03-23T05:53:11;100738.72;;;5.85;100.00
70053;BME280;57398;52.032;4.376;2024-03-23T05:56:03;100740.53;;;5.85;100.00
70053;BME280;57398;52.032;4.376;2024-03-23T05:58:52;100734.75;;;5.83;100.00
70053;BME280;57398;52.032;4.376;2024-03-23T06:01:41;100738.34;;;5.88;100.00
70053;BME280;57398;52.032;4.376;2024-03-23T06:04:27;100701.63;;;5.80;100.00
70053;BME280;57398;52.032;4.376;2024-03-23T06:07:14;100697.44;;;5.79;100.00
70053;BME280;57398;52.032;4.376;2024-03-23T06:10:00;100679.75;;;5.69;100.00
70053;BME280;57398;52.032;4.376;2024-03-23T06:12:47;100676.59;;;5.74;100.00
70053;BME280;57398;52.032;4.376;2024-03-23T06:15:37;100704.03;;;5.88;100.00
70053;BME280;57398;52.032;4.376;2024-03-23T06:18:25;100702.06;;;5.90;100.00
70053;BME280;57398;52.032;4.376;2024-03-23T06:21:13;100718.53;;;5.89;100.00
70053;BME280;57398;52.032;4.376;2024-03-23T06:23:59;100758.78;;;5.90;100.00
70053;BME280;57398;52.032;4.376;2024-03-23T06:26:47;100771.56;;;5.98;100.00
70053;BME280;57398;52.032;4.376;2024-03-23T06:29:33;100760.03;;;5.94;100.00
70053;BME280;57398;52.032;4.376;2024-03-23T06:32:22;100790.41;;;5.99;100.00
70053;BME280;57398;52.032;4.376;2024-03-23T06:35:09;100745.63;;;6.06;100.00
70053;BME280;57398;52.032;4.376;2024-03-23T06:37:56;100746.13;;;6.23;100.00
70053;BME280;57398;52.032;4.376;2024-03-23T06:40:43;100737.56;;;6.23;100.00
70053;BME280;57398;52.032;4.376;2024-03-23T06:43:33;100735.38;;;6.20;100.00
70053;BME280;57398;52.032;4.376;2024-03-23T06:46:19;100744.91;;;6.19;100.00
70053;BME280;57398;52.032;4.376;2024-03-23T06:49:06;100738.56;;;6.22;100.00
70053;BME280;57398;52.032;4.376;2024-03-23T06:51:54;100786.81;;;6.28;100.00
70053;BME280;57398;52.032;4.376;2024-03-23T06:54:41;100766.53;;;6.25;100.00
70053;BME280;57398;52.032;4.376;2024-03-23T06:57:27;100766.50;;;6.18;100.00
70053;BME280;57398;52.032;4.376;2024-03-23T07:00:15;100785.53;;;6.11;100.00
70053;BME280;57398;52.032;4.376;2024-03-23T07:03:02;100791.72;;;6.16;100.00
70053;BME280;57398;52.032;4.376;2024-03-23T07:05:50;100777.09;;;6.30;100.00
70053;BME280;57398;52.032;4.376;2024-03-23T07:08:37;100796.59;;;6.39;100.00
70053;BME280;57398;52.032;4.376;2024-03-23T07:11:24;100801.22;;;6.50;100.00
70053;BME280;57398;52.032;4.376;2024-03-23T07:14:11;100778.63;;;6.66;100.00
70053;BME280;57398;52.032;4.376;2024-03-23T07:16:58;100803.22;;;6.55;100.00
70053;BME280;57398;52.032;4.376;2024-03-23T07:19:46;100817.53;;;6.58;100.00
70053;BME280;57398;52.032;4.376;2024-03-23T07:22:33;100815.56;;;6.60;100.00
70053;BME280;57398;52.032;4.376;2024-03-23T07:25:22;100808.75;;;6.52;100.00
70053;BME280;57398;52.032;4.376;2024-03-23T07:28:09;100802.59;;;6.46;100.00
70053;BME280;57398;52.032;4.376;2024-03-23T07:31:03;100822.72;;;6.29;100.00
70053;BME280;57398;52.032;4.376;2024-03-23T07:33:49;100826.09;;;6.23;100.00
70053;BME280;57398;52.032;4.376;2024-03-23T07:36:37;100841.97;;;6.27;100.00
70053;BME280;57398;52.032;4.376;2024-03-23T07:39:23;100851.66;;;6.25;100.00
70053;BME280;57398;52.032;4.376;2024-03-23T07:42:12;100839.34;;;6.20;100.00
70053;BME280;57398;52.032;4.376;2024-03-23T07:44:58;100837.94;;;6.18;100.00
70053;BME280;57398;52.032;4.376;2024-03-23T07:47:45;100792.75;;;6.28;100.00
70053;BME280;57398;52.032;4.376;2024-03-23T07:50:31;100787.72;;;6.48;100.00
70053;BME280;57398;52.032;4.376;2024-03-23T07:53:18;100800.66;;;6.55;100.00
70053;BME280;57398;52.032;4.376;2024-03-23T07:56:07;100815.38;;;6.68;100.00
70053;BME280;57398;52.032;4.376;2024-03-23T07:58:55;100836.13;;;6.95;100.00
70053;BME280;57398;52.032;4.376;2024-03-23T08:01:41;100835.91;;;6.96;100.00
70053;BME280;57398;52.032;4.376;2024-03-23T08:04:28;100843.44;;;6.91;100.00
70053;BME280;57398;52.032;4.376;2024-03-23T08:07:15;100851.97;;;6.85;100.00
70053;BME280;57398;52.032;4.376;2024-03-23T08:10:02;100864.06;;;6.78;100.00
70053;BME280;57398;52.032;4.376;2024-03-23T08:12:49;100850.44;;;6.97;100.00
70053;BME280;57398;52.032;4.376;2024-03-23T08:15:38;100860.25;;;7.35;100.00
70053;BME280;57398;52.032;4.376;2024-03-23T08:18:24;100874.63;;;7.71;100.00
70053;BME280;57398;52.032;4.376;2024-03-23T08:21:11;100889.16;;;7.65;100.00
70053;BME280;57398;52.032;4.376;2024-03-23T08:23:58;100904.81;;;7.44;100.00
70053;BME280;57398;52.032;4.376;2024-03-23T08:26:45;100905.63;;;7.38;100.00
70053;BME280;57398;52.032;4.376;2024-03-23T08:29:31;100915.50;;;7.27;100.00
70053;BME280;57398;52.032;4.376;2024-03-23T08:32:20;100933.75;;;7.19;100.00
70053;BME280;57398;52.032;4.376;2024-03-23T08:35:07;100914.75;;;7.33;100.00
70053;BME280;57398;52.032;4.376;2024-03-23T08:37:55;100942.13;;;7.28;100.00
70053;BME280;57398;52.032;4.376;2024-03-23T08:40:42;100915.44;;;7.07;100.00
70053;BME280;57398;52.032;4.376;2024-03-23T08:43:29;100878.91;;;7.10;100.00
70053;BME280;57398;52.032;4.376;2024-03-23T08:46:17;100902.72;;;7.06;100.00
70053;BME280;57398;52.032;4.376;2024-03-23T08:49:05;100909.84;;;6.97;100.00
70053;BME280;57398;52.032;4.376;2024-03-23T08:51:51;100935.13;;;7.08;100.00
70053;BME280;57398;52.032;4.376;2024-03-23T08:54:40;100950.91;;;7.33;100.00
70053;BME280;57398;52.032;4.376;2024-03-23T08:57:26;100991.22;;;7.83;100.00
70053;BME280;57398;52.032;4.376;2024-03-23T09:00:14;100994.00;;;7.88;100.00
70053;BME280;57398;52.032;4.376;2024-03-23T09:03:00;101010.78;;;7.44;100.00
70053;BME280;57398;52.032;4.376;2024-03-23T09:05:51;100953.91;;;7.44;100.00
70053;BME280;57398;52.032;4.376;2024-03-23T09:08:37;100990.88;;;8.26;100.00
70053;BME280;57398;52.032;4.376;2024-03-23T09:11:26;101047.56;;;8.07;100.00
70053;BME280;57398;52.032;4.376;2024-03-23T09:14:13;101056.19;;;8.74;100.00
70053;BME280;57398;52.032;4.376;2024-03-23T09:17:00;101062.56;;;8.45;100.00
70053;BME280;57398;52.032;4.376;2024-03-23T09:19:46;101052.66;;;7.67;100.00
70053;BME280;57398;52.032;4.376;2024-03-23T09:22:35;100999.06;;;7.48;100.00
70053;BME280;57398;52.032;4.376;2024-03-23T09:25:21;101022.84;;;7.30;100.00
70053;BME280;57398;52.032;4.376;2024-03-23T09:28:09;100996.31;;;7.49;100.00
70053;BME280;57398;52.032;4.376;2024-03-23T09:30:55;101007.03;;;7.53;100.00
70053;BME280;57398;52.032;4.376;2024-03-23T09:33:42;100995.41;;;7.84;100.00
70053;BME280;57398;52.032;4.376;2024-03-23T09:36:28;100987.41;;;7.65;100.00
70053;BME280;57398;52.032;4.376;2024-03-23T09:39:17;100978.22;;;7.49;100.00
70053;BME280;57398;52.032;4.376;2024-03-23T09:42:04;100964.44;;;7.36;100.00
70053;BME280;57398;52.032;4.376;2024-03-23T09:44:51;100987.88;;;8.35;100.00
70053;BME280;57398;52.032;4.376;2024-03-23T09:47:38;101011.34;;;9.00;100.00
70053;BME280;57398;52.032;4.376;2024-03-23T09:50:25;101032.31;;;8.59;100.00
70053;BME280;57398;52.032;4.376;2024-03-23T09:53:12;101023.50;;;8.07;100.00
70053;BME280;57398;52.032;4.376;2024-03-23T09:56:01;101009.06;;;7.64;100.00
70053;BME280;57398;52.032;4.376;2024-03-23T09:58:47;100980.66;;;7.78;100.00
70053;BME280;57398;52.032;4.376;2024-03-23T10:01:34;100992.19;;;7.75;100.00
70053;BME280;57398;52.032;4.376;2024-03-23T10:04:37;101000.16;;;7.80;100.00
70053;BME280;57398;52.032;4.376;2024-03-23T10:07:23;100994.75;;;7.68;100.00
70053;BME280;57398;52.032;4.376;2024-03-23T10:10:11;101021.66;;;7.94;100.00
70053;BME280;57398;52.032;4.376;2024-03-23T10:12:58;101049.97;;;8.09;100.00
70053;BME280;57398;52.032;4.376;2024-03-23T10:15:46;101023.50;;;8.27;100.00
70053;BME280;57398;52.032;4.376;2024-03-23T10:18:37;101027.50;;;8.16;100.00
70053;BME280;57398;52.032;4.376;2024-03-23T10:21:24;101046.47;;;8.43;100.00
70053;BME280;57398;52.032;4.376;2024-03-23T10:24:11;101039.09;;;8.73;100.00
70053;BME280;57398;52.032;4.376;2024-03-23T10:26:59;101035.22;;;9.09;100.00
70053;BME280;57398;52.032;4.376;2024-03-23T10:29:47;101061.78;;;8.98;100.00
70053;BME280;57398;52.032;4.376;2024-03-23T10:32:34;101078.03;;;9.25;100.00
70053;BME280;57398;52.032;4.376;2024-03-23T10:35:21;101142.16;;;8.23;100.00
70053;BME280;57398;52.032;4.376;2024-03-23T10:38:08;101060.06;;;7.90;100.00
70053;BME280;57398;52.032;4.376;2024-03-23T10:40:55;101101.47;;;7.97;100.00
70053;BME280;57398;52.032;4.376;2024-03-23T10:44:02;101074.34;;;7.73;100.00
70053;BME280;57398;52.032;4.376;2024-03-23T10:46:58;101070.78;;;7.81;100.00
70053;BME280;57398;52.032;4.376;2024-03-23T10:49:45;101100.41;;;7.78;100.00
70053;BME280;57398;52.032;4.376;2024-03-23T10:52:34;101077.09;;;7.71;100.00
70053;BME280;57398;52.032;4.376;2024-03-23T10:55:22;101052.66;;;7.81;100.00
70053;BME280;57398;52.032;4.376;2024-03-23T10:58:11;101089.59;;;8.16;100.00
70053;BME280;57398;52.032;4.376;2024-03-23T11:00:58;101067.28;;;8.22;100.00
70053;BME280;57398;52.032;4.376;2024-03-23T11:03:47;101073.13;;;8.77;100.00
70053;BME280;57398;52.032;4.376;2024-03-23T11:06:34;101112.78;;;8.57;100.00
70053;BME280;57398;52.032;4.376;2024-03-23T11:09:41;101083.72;;;8.69;100.00
70053;BME280;57398;52.032;4.376;2024-03-23T11:12:31;101111.38;;;8.48;100.00
70053;BME280;57398;52.032;4.376;2024-03-23T11:15:21;101094.81;;;8.29;100.00
70053;BME280;57398;52.032;4.376;2024-03-23T11:18:07;101131.72;;;8.03;100.00
70053;BME280;57398;52.032;4.376;2024-03-23T11:20:56;101114.56;;;8.90;100.00
70053;BME280;57398;52.032;4.376;2024-03-23T11:23:42;101112.16;;;9.22;100.00
70053;BME280;57398;52.032;4.376;2024-03-23T11:26:29;101167.94;;;8.58;100.00
70053;BME280;57398;52.032;4.376;2024-03-23T11:29:17;101132.44;;;8.38;100.00
70053;BME280;57398;52.032;4.376;2024-03-23T11:32:05;101091.69;;;8.80;100.00
70053;BME280;57398;52.032;4.376;2024-03-23T11:34:56;101100.41;;;8.99;100.00
70053;BME280;57398;52.032;4.376;2024-03-23T11:37:44;101134.84;;;8.40;100.00
70053;BME280;57398;52.032;4.376;2024-03-23T11:40:30;101138.09;;;8.82;100.00
70053;BME280;57398;52.032;4.376;2024-03-23T11:43:18;101171.38;;;8.10;100.00
70053;BME280;57398;52.032;4.376;2024-03-23T11:46:05;101135.34;;;8.09;100.00
70053;BME280;57398;52.032;4.376;2024-03-23T11:48:54;101153.44;;;8.64;100.00
70053;BME280;57398;52.032;4.376;2024-03-23T11:51:40;101160.00;;;8.66;100.00
70053;BME280;57398;52.032;4.376;2024-03-23T11:54:28;101169.97;;;9.16;100.00
70053;BME280;57398;52.032;4.376;2024-03-23T11:57:15;101156.44;;;8.94;100.00
70053;BME280;57398;52.032;4.376;2024-03-23T12:00:02;101161.41;;;8.95;100.00
70053;BME280;57398;52.032;4.376;2024-03-23T12:03:06;101143.88;;;9.04;100.00
70053;BME280;57398;52.032;4.376;2024-03-23T12:05:53;101140.88;;;8.80;100.00
70053;BME280;57398;52.032;4.376;2024-03-23T12:08:40;101141.69;;;8.81;100.00
70053;BME280;57398;52.032;4.376;2024-03-23T12:11:29;101098.78;;;8.38;100.00
70053;BME280;57398;52.032;4.376;2024-03-23T12:14:15;101085.13;;;6.57;100.00
70053;BME280;57398;52.032;4.376;2024-03-23T12:17:12;101080.34;;;6.54;100.00
70053;BME280;57398;52.032;4.376;2024-03-23T12:19:59;101045.34;;;6.23;100.00
70053;BME280;57398;52.032;4.376;2024-03-23T12:22:46;100996.38;;;6.30;100.00
70053;BME280;57398;52.032;4.376;2024-03-23T12:25:32;101014.19;;;6.25;100.00
70053;BME280;57398;52.032;4.376;2024-03-23T12:28:21;100968.31;;;6.20;100.00
70053;BME280;57398;52.032;4.376;2024-03-23T12:31:07;100903.84;;;6.90;100.00
70053;BME280;57398;52.032;4.376;2024-03-23T12:33:58;100904.31;;;7.07;100.00
70053;BME280;57398;52.032;4.376;2024-03-23T12:36:44;100920.75;;;6.92;100.00
70053;BME280;57398;52.032;4.376;2024-03-23T12:39:31;100879.91;;;6.33;100.00
70053;BME280;57398;52.032;4.376;2024-03-23T12:42:21;100808.19;;;5.65;100.00
70053;BME280;57398;52.032;4.376;2024-03-23T12:45:09;100738.75;;;5.57;100.00
70053;BME280;57398;52.032;4.376;2024-03-23T12:47:56;100728.78;;;5.26;100.00
70053;BME280;57398;52.032;4.376;2024-03-23T12:50:43;100694.97;;;5.36;100.00
70053;BME280;57398;52.032;4.376;2024-03-23T12:53:29;100610.97;;;6.18;100.00
70053;BME280;57398;52.032;4.376;2024-03-23T12:56:16;100627.34;;;6.91;100.00
70053;BME280;57398;52.032;4.376;2024-03-23T12:59:03;100696.69;;;7.21;100.00
70053;BME280;57398;52.032;4.376;2024-03-23T13:01:51;100780.31;;;7.00;100.00
70053;BME280;57398;52.032;4.376;2024-03-23T13:04:38;100820.47;;;7.16;100.00
70053;BME280;57398;52.032;4.376;2024-03-23T13:07:25;100775.41;;;7.72;100.00
70053;BME280;57398;52.032;4.376;2024-03-23T13:10:11;100853.91;;;7.51;100.00
70053;BME280;57398;52.032;4.376;2024-03-23T13:13:00;100882.16;;;7.46;100.00
70053;BME280;57398;52.032;4.376;2024-03-23T13:15:49;100967.38;;;7.32;100.00
70053;BME280;57398;52.032;4.376;2024-03-23T13:18:38;100961.53;;;7.59;100.00
70053;BME280;57398;52.032;4.376;2024-03-23T13:21:24;100953.84;;;8.05;100.00
70053;BME280;57398;52.032;4.376;2024-03-23T13:24:11;100993.25;;;8.27;100.00
70053;BME280;57398;52.032;4.376;2024-03-23T13:26:59;100942.50;;;8.00;100.00
70053;BME280;57398;52.032;4.376;2024-03-23T13:29:45;100964.31;;;7.64;100.00
70053;BME280;57398;52.032;4.376;2024-03-23T13:32:32;100904.06;;;7.63;100.00
70053;BME280;57398;52.032;4.376;2024-03-23T13:35:20;100956.59;;;7.77;100.00
70053;BME280;57398;52.032;4.376;2024-03-23T13:38:08;100899.88;;;7.69;100.00
70053;BME280;57398;52.032;4.376;2024-03-23T13:40:56;100981.25;;;7.18;100.00
70053;BME280;57398;52.032;4.376;2024-03-23T13:43:43;100945.97;;;6.90;100.00
70053;BME280;57398;52.032;4.376;2024-03-23T13:46:29;100918.31;;;6.84;100.00
70053;BME280;57398;52.032;4.376;2024-03-23T13:49:27;100895.00;;;7.12;100.00
70053;BME280;57398;52.032;4.376;2024-03-23T13:52:15;100893.50;;;7.65;100.00
70053;BME280;57398;52.032;4.376;2024-03-23T13:55:04;100985.97;;;7.63;100.00
70053;BME280;57398;52.032;4.376;2024-03-23T13:57:54;100935.72;;;7.98;100.00
70053;BME280;57398;52.032;4.376;2024-03-23T14:00:42;100955.44;;;7.93;100.00
70053;BME280;57398;52.032;4.376;2024-03-23T14:03:28;100950.53;;;7.37;100.00
70053;BME280;57398;52.032;4.376;2024-03-23T14:06:16;100915.22;;;7.02;100.00
70053;BME280;57398;52.032;4.376;2024-03-23T14:09:04;100856.00;;;7.01;100.00
70053;BME280;57398;52.032;4.376;2024-03-23T14:11:51;100860.19;;;7.02;100.00
70053;BME280;57398;52.032;4.376;2024-03-23T14:14:37;100868.13;;;7.00;100.00
70053;BME280;57398;52.032;4.376;2024-03-23T14:17:24;100784.31;;;7.23;100.00
70053;BME280;57398;52.032;4.376;2024-03-23T14:20:13;100843.41;;;7.72;100.00
70053;BME280;57398;52.032;4.376;2024-03-23T14:23:01;100902.09;;;8.18;100.00
70053;BME280;57398;52.032;4.376;2024-03-23T14:25:49;100951.25;;;8.52;100.00
70053;BME280;57398;52.032;4.376;2024-03-23T14:28:36;100979.28;;;8.75;100.00
70053;BME280;57398;52.032;4.376;2024-03-23T14:31:22;100984.50;;;8.62;100.00
70053;BME280;57398;52.032;4.376;2024-03-23T14:34:11;101014.19;;;8.52;100.00
70053;BME280;57398;52.032;4.376;2024-03-23T14:36:57;100988.25;;;8.86;100.00
70053;BME280;57398;52.032;4.376;2024-03-23T14:39:44;101002.97;;;8.98;100.00
70053;BME280;57398;52.032;4.376;2024-03-23T14:42:33;101042.19;;;9.09;100.00
70053;BME280;57398;52.032;4.376;2024-03-23T14:45:20;101049.63;;;8.72;100.00
70053;BME280;57398;52.032;4.376;2024-03-23T14:48:06;101035.09;;;8.77;100.00
70053;BME280;57398;52.032;4.376;2024-03-23T14:50:56;101057.03;;;8.68;100.00
70053;BME280;57398;52.032;4.376;2024-03-23T14:53:51;101049.44;;;8.40;100.00
70053;BME280;57398;52.032;4.376;2024-03-23T14:56:38;101040.84;;;8.39;100.00
70053;BME280;57398;52.032;4.376;2024-03-23T14:59:25;101030.53;;;8.73;100.00
70053;BME280;57398;52.032;4.376;2024-03-23T15:02:12;101046.25;;;8.71;100.00
70053;BME280;57398;52.032;4.376;2024-03-23T15:04:59;101043.06;;;8.83;100.00
70053;BME280;57398;52.032;4.376;2024-03-23T15:07:46;101013.16;;;8.87;100.00
70053;BME280;57398;52.032;4.376;2024-03-23T15:10:34;101021.56;;;8.62;100.00
70053;BME280;57398;52.032;4.376;2024-03-23T15:13:21;101040.84;;;8.93;100.00
70053;BME280;57398;52.032;4.376;2024-03-23T15:16:08;101034.59;;;9.14;100.00
70053;BME280;57398;52.032;4.376;2024-03-23T15:18:55;101023.91;;;8.97;100.00
70053;BME280;57398;52.032;4.376;2024-03-23T15:21:42;101019.97;;;8.41;100.00
70053;BME280;57398;52.032;4.376;2024-03-23T15:24:29;100988.88;;;8.28;100.00
70053;BME280;57398;52.032;4.376;2024-03-23T15:27:16;100980.13;;;8.49;100.00
70053;BME280;57398;52.032;4.376;2024-03-23T15:30:05;100954.66;;;8.59;100.00